createdAt,value
2017-09-24T00:00:10.797Z,14.87
2017-09-24T00:02:40.516Z,8.93
2017-09-24T00:05:10.006Z,9.30
2017-09-24T00:07:39.202Z,9.57
2017-09-24T00:10:08.067Z,9.23
2017-09-24T00:12:36.883Z,7.90
2017-09-24T00:15:05.642Z,10.73
2017-09-24T00:17:34.500Z,10.70
2017-09-24T00:20:03.909Z,11.23
2017-09-24T00:22:32.809Z,13.10
2017-09-24T00:25:02.362Z,13.70
2017-09-24T00:27:31.842Z,13.90
2017-09-24T00:30:01.140Z,14.30
2017-09-24T00:32:29.859Z,18.60
2017-09-24T00:34:58.202Z,17.83
2017-09-24T00:37:27.065Z,18.70
2017-09-24T00:39:56.503Z,19.53
2017-09-24T00:42:25.665Z,17.83
2017-09-24T00:44:54.098Z,17.00
2017-09-24T00:47:23.227Z,15.17
2017-09-24T00:49:52.410Z,21.93
2017-09-24T00:52:21.496Z,14.87
2017-09-24T00:54:50.746Z,10.80
2017-09-24T00:57:20.296Z,11.00
2017-09-24T00:59:49.101Z,12.77
2017-09-24T01:02:18.226Z,10.10
2017-09-24T01:04:46.875Z,11.03
2017-09-24T01:07:16.068Z,8.27
2017-09-24T01:09:45.463Z,8.20
2017-09-24T01:12:15.014Z,7.50
2017-09-24T01:14:44.156Z,7.57
2017-09-24T01:17:13.537Z,7.43
2017-09-24T01:19:42.681Z,8.50
2017-09-24T01:22:11.386Z,6.50
2017-09-24T01:24:40.468Z,4.87
2017-09-24T01:27:09.389Z,6.17
2017-09-24T01:29:38.229Z,7.27
2017-09-24T01:32:06.871Z,7.37
2017-09-24T01:34:35.919Z,6.63
2017-09-24T01:37:05.335Z,6.40
2017-09-24T01:39:34.526Z,6.33
2017-09-24T01:42:03.496Z,8.63
2017-09-24T01:44:32.807Z,9.50
2017-09-24T01:47:02.027Z,11.80
2017-09-24T01:49:30.763Z,12.87
2017-09-24T01:51:59.574Z,13.70
2017-09-24T01:54:28.345Z,11.20
2017-09-24T01:56:56.955Z,9.97
2017-09-24T01:59:25.987Z,5.23
2017-09-24T02:01:54.823Z,7.03
2017-09-24T02:04:23.571Z,5.97
2017-09-24T02:06:52.401Z,6.13
2017-09-24T02:09:21.171Z,5.40
2017-09-24T02:11:49.858Z,6.10
2017-09-24T02:14:19.080Z,6.03
2017-09-24T02:16:48.642Z,5.13
2017-09-24T02:19:19.108Z,4.00
2017-09-24T02:21:48.319Z,2.90
2017-09-24T02:24:17.331Z,4.17
2017-09-24T02:26:46.185Z,3.20
2017-09-24T02:29:14.902Z,3.10
2017-09-24T02:31:44.082Z,2.73
2017-09-24T02:34:13.116Z,2.80
2017-09-24T02:36:42.383Z,2.50
2017-09-24T02:39:11.664Z,2.90
2017-09-24T02:41:40.611Z,2.50
2017-09-24T02:44:09.621Z,4.00
2017-09-24T02:46:38.524Z,5.03
2017-09-24T02:49:07.554Z,3.47
2017-09-24T02:51:38.120Z,4.00
2017-09-24T02:54:07.257Z,4.23
2017-09-24T02:56:36.137Z,5.03
2017-09-24T02:59:05.297Z,2.90
2017-09-24T03:01:34.363Z,3.60
2017-09-24T03:04:03.624Z,5.17
2017-09-24T03:06:32.187Z,6.47
2017-09-24T03:09:01.844Z,3.90
2017-09-24T03:11:30.620Z,5.30
2017-09-24T03:13:59.736Z,3.10
2017-09-24T03:16:28.214Z,4.10
2017-09-24T03:18:57.508Z,3.90
2017-09-24T03:21:26.548Z,3.10
2017-09-24T03:23:55.379Z,3.50
2017-09-24T03:26:24.834Z,3.90
2017-09-24T03:28:53.568Z,3.47
2017-09-24T03:31:22.819Z,3.43
2017-09-24T03:33:52.078Z,4.63
2017-09-24T03:36:20.952Z,4.27
2017-09-24T03:38:50.211Z,2.77
2017-09-24T03:41:19.236Z,4.63
2017-09-24T03:43:48.547Z,5.73
2017-09-24T03:46:22.244Z,4.70
2017-09-24T03:48:51.656Z,4.20
2017-09-24T03:51:20.523Z,5.80
2017-09-24T03:53:49.686Z,4.60
2017-09-24T03:56:18.280Z,4.43
2017-09-24T03:58:47.075Z,4.70
2017-09-24T04:01:16.007Z,5.90
2017-09-24T04:03:44.881Z,6.10
2017-09-24T04:06:13.901Z,8.00
2017-09-24T04:08:42.984Z,7.13
2017-09-24T04:11:11.853Z,6.77
2017-09-24T04:13:40.629Z,6.83
2017-09-24T04:16:09.472Z,9.27
2017-09-24T04:18:38.999Z,5.30
2017-09-24T04:21:09.506Z,5.97
2017-09-24T04:23:38.274Z,5.90
2017-09-24T04:26:06.689Z,7.33
2017-09-24T04:28:35.465Z,8.70
2017-09-24T04:31:03.999Z,5.97
2017-09-24T04:33:32.617Z,7.90
2017-09-24T04:36:01.417Z,8.33
2017-09-24T04:38:30.255Z,7.00
2017-09-24T04:40:59.163Z,7.03
2017-09-24T04:43:28.293Z,8.20
2017-09-24T04:45:57.282Z,7.17
2017-09-24T04:48:26.553Z,9.10
2017-09-24T04:50:55.686Z,8.80
2017-09-24T04:53:25.064Z,8.93
2017-09-24T04:55:53.743Z,11.03
2017-09-24T04:58:23.196Z,10.10
2017-09-24T05:00:51.917Z,14.63
2017-09-24T05:03:20.521Z,7.47
2017-09-24T05:05:49.588Z,10.67
2017-09-24T05:08:18.220Z,12.83
2017-09-24T05:10:47.379Z,10.20
2017-09-24T05:13:16.437Z,11.60
2017-09-24T05:15:45.680Z,52.87
2017-09-24T05:18:14.562Z,14.43
2017-09-24T05:20:43.159Z,15.50
2017-09-24T05:23:11.854Z,16.40
2017-09-24T05:25:41.443Z,23.67
2017-09-24T05:28:10.724Z,13.43
2017-09-24T05:30:39.788Z,15.83
2017-09-24T05:33:08.724Z,21.43
2017-09-24T05:35:37.191Z,22.40
2017-09-24T05:38:06.428Z,25.70
2017-09-24T05:40:35.561Z,19.33
2017-09-24T05:43:04.727Z,22.23
2017-09-24T05:45:34.257Z,21.23
2017-09-24T05:48:03.750Z,15.80
2017-09-24T05:50:32.524Z,17.20
2017-09-24T05:53:01.387Z,16.37
2017-09-24T05:55:30.533Z,63.70
2017-09-24T05:57:59.036Z,16.70
2017-09-24T06:00:28.815Z,17.23
2017-09-24T06:02:57.532Z,23.07
2017-09-24T06:05:26.598Z,30.43
2017-09-24T06:07:55.847Z,31.80
2017-09-24T06:10:25.368Z,17.80
2017-09-24T06:12:54.829Z,37.93
2017-09-24T06:15:24.983Z,30.30
2017-09-24T06:17:54.727Z,34.97
2017-09-24T06:20:23.772Z,39.17
2017-09-24T06:22:52.847Z,39.73
2017-09-24T06:25:22.561Z,44.20
2017-09-24T06:27:51.267Z,41.60
2017-09-24T06:30:21.081Z,45.67
2017-09-24T06:32:50.006Z,41.87
2017-09-24T06:35:18.848Z,46.17
2017-09-24T06:37:47.548Z,41.60
2017-09-24T06:40:16.009Z,52.70
2017-09-24T06:42:44.882Z,48.43
2017-09-24T06:45:13.513Z,53.13
2017-09-24T06:47:42.450Z,51.73
2017-09-24T06:50:11.260Z,49.47
2017-09-24T06:52:40.117Z,52.07
2017-09-24T06:55:09.036Z,53.60
2017-09-24T06:57:38.645Z,64.97
2017-09-24T07:00:07.338Z,64.50
2017-09-24T07:02:35.965Z,64.37
2017-09-24T07:05:05.170Z,64.90
2017-09-24T07:07:33.819Z,69.33
2017-09-24T07:10:02.722Z,62.37
2017-09-24T07:12:31.896Z,66.70
2017-09-24T07:15:00.707Z,65.97
2017-09-24T07:17:29.857Z,63.00
2017-09-24T07:19:59.063Z,63.67
2017-09-24T07:22:28.050Z,67.93
2017-09-24T07:24:56.907Z,60.03
2017-09-24T07:27:27.600Z,65.57
2017-09-24T07:29:56.476Z,56.30
2017-09-24T07:32:26.405Z,64.40
2017-09-24T07:34:55.396Z,71.97
2017-09-24T07:37:24.718Z,77.90
2017-09-24T07:39:54.158Z,64.07
2017-09-24T07:42:22.863Z,63.17
2017-09-24T07:44:51.835Z,67.50
2017-09-24T07:47:20.601Z,63.20
2017-09-24T07:49:50.111Z,66.00
2017-09-24T07:52:19.038Z,54.40
2017-09-24T07:54:48.245Z,64.07
2017-09-24T07:57:17.538Z,56.20
2017-09-24T07:59:46.706Z,52.53
2017-09-24T08:02:16.644Z,59.50
2017-09-24T08:04:46.966Z,51.63
2017-09-24T08:07:15.967Z,52.83
2017-09-24T08:09:44.810Z,51.20
2017-09-24T08:12:13.620Z,56.43
2017-09-24T08:14:42.790Z,56.37
2017-09-24T08:17:11.777Z,60.93
2017-09-24T08:19:40.890Z,41.57
2017-09-24T08:22:10.737Z,49.60
2017-09-24T08:24:39.577Z,58.87
2017-09-24T08:27:08.364Z,51.07
2017-09-24T08:29:37.592Z,55.50
2017-09-24T08:32:06.689Z,59.53
2017-09-24T08:34:36.383Z,57.40
2017-09-24T08:37:05.535Z,57.40
2017-09-24T08:39:34.696Z,59.13
2017-09-24T08:42:03.602Z,55.07
2017-09-24T08:44:32.547Z,61.03
2017-09-24T08:47:01.849Z,56.07
2017-09-24T08:49:30.764Z,58.00
2017-09-24T08:52:00.021Z,59.30
2017-09-24T08:54:28.963Z,46.80
2017-09-24T08:56:57.758Z,45.27
2017-09-24T08:59:27.101Z,49.43
2017-09-24T09:01:56.359Z,49.00
2017-09-24T09:04:25.174Z,52.03
2017-09-24T09:06:54.217Z,50.63
2017-09-24T09:09:23.709Z,57.30
2017-09-24T09:11:52.628Z,51.87
2017-09-24T09:14:21.676Z,51.97
2017-09-24T09:16:50.635Z,55.93
2017-09-24T09:19:19.714Z,46.87
2017-09-24T09:21:48.880Z,55.40
2017-09-24T09:24:18.062Z,55.40
2017-09-24T09:26:46.779Z,51.50
2017-09-24T09:29:15.464Z,53.40
2017-09-24T09:31:44.454Z,54.10
2017-09-24T09:34:24.890Z,51.33
2017-09-24T09:36:54.071Z,49.23
2017-09-24T09:39:22.802Z,48.20
2017-09-24T09:41:51.778Z,49.13
2017-09-24T09:44:32.922Z,49.07
2017-09-24T09:47:14.237Z,49.90
2017-09-24T09:49:43.331Z,50.97
2017-09-24T09:52:12.490Z,51.67
2017-09-24T09:54:41.199Z,54.67
2017-09-24T09:57:10.213Z,45.97
2017-09-24T09:59:39.205Z,53.07
2017-09-24T10:02:08.127Z,51.37
2017-09-24T10:04:37.638Z,52.20
2017-09-24T10:07:18.321Z,48.30
2017-09-24T10:09:59.452Z,48.00
2017-09-24T10:12:28.443Z,49.37
2017-09-24T10:14:57.660Z,47.83
2017-09-24T10:17:26.645Z,52.50
2017-09-24T10:19:55.561Z,51.57
2017-09-24T10:22:24.615Z,52.00
2017-09-24T10:24:53.425Z,48.70
2017-09-24T10:27:22.227Z,52.40
2017-09-24T10:30:02.578Z,51.40
2017-09-24T10:32:35.188Z,47.70
2017-09-24T10:35:04.787Z,47.70
2017-09-24T10:37:33.365Z,51.57
2017-09-24T10:40:01.908Z,52.10
2017-09-24T10:42:30.657Z,62.60
2017-09-24T10:45:01.642Z,73.47
2017-09-24T10:47:38.770Z,59.70
2017-09-24T10:50:09.272Z,58.63
2017-09-24T10:52:38.191Z,52.63
2017-09-24T10:55:06.702Z,60.27
2017-09-24T10:57:36.289Z,58.60
2017-09-24T11:00:05.731Z,57.13
2017-09-24T11:02:34.660Z,53.33
2017-09-24T11:05:03.917Z,49.43
2017-09-24T11:07:32.838Z,50.53
2017-09-24T11:10:01.853Z,45.43
2017-09-24T11:12:31.200Z,47.17
2017-09-24T11:15:00.298Z,46.97
2017-09-24T11:17:29.730Z,45.80
2017-09-24T11:19:58.153Z,54.87
2017-09-24T11:22:27.064Z,54.67
2017-09-24T11:24:56.043Z,59.67
2017-09-24T11:27:25.598Z,55.20
2017-09-24T11:29:55.084Z,52.97
2017-09-24T11:32:24.063Z,53.03
2017-09-24T11:34:52.934Z,40.70
2017-09-24T11:37:21.934Z,50.53
2017-09-24T11:39:50.720Z,53.07
2017-09-24T11:42:19.475Z,50.93
2017-09-24T11:44:48.169Z,56.80
2017-09-24T11:47:16.852Z,50.17
2017-09-24T11:49:45.755Z,53.80
2017-09-24T11:52:14.832Z,55.57
2017-09-24T11:54:43.602Z,53.87
2017-09-24T11:57:12.459Z,51.80
2017-09-24T11:59:41.382Z,51.10
2017-09-24T12:02:10.132Z,48.27
2017-09-24T12:04:39.865Z,53.23
2017-09-24T12:07:08.793Z,49.43
2017-09-24T12:09:37.608Z,49.23
2017-09-24T12:12:06.833Z,54.50
2017-09-24T12:14:36.455Z,49.20
2017-09-24T12:17:05.234Z,44.57
2017-09-24T12:19:34.224Z,49.50
2017-09-24T12:22:03.225Z,51.80
2017-09-24T12:24:32.659Z,51.40
2017-09-24T12:27:01.845Z,47.67
2017-09-24T12:29:31.597Z,48.83
2017-09-24T12:32:00.330Z,54.57
2017-09-24T12:34:29.014Z,52.00
2017-09-24T12:36:57.592Z,56.03
2017-09-24T12:39:26.499Z,57.77
2017-09-24T12:41:55.323Z,67.20
2017-09-24T12:44:24.109Z,62.83
2017-09-24T12:46:54.166Z,64.60
2017-09-24T12:49:23.632Z,54.03
2017-09-24T12:51:52.490Z,55.17
2017-09-24T12:54:21.781Z,58.23
2017-09-24T12:56:50.855Z,66.90
2017-09-24T12:59:19.921Z,61.33
2017-09-24T13:01:48.569Z,58.00
2017-09-24T13:04:17.352Z,58.37
2017-09-24T13:06:47.037Z,56.07
2017-09-24T13:09:15.781Z,58.43
2017-09-24T13:11:44.732Z,57.83
2017-09-24T13:14:13.509Z,59.60
2017-09-24T13:16:42.961Z,50.27
2017-09-24T13:19:11.690Z,56.33
2017-09-24T13:21:40.957Z,57.07
2017-09-24T13:24:09.682Z,57.27
2017-09-24T13:26:38.099Z,45.50
2017-09-24T13:29:06.923Z,61.27
2017-09-24T13:31:36.032Z,65.90
2017-09-24T13:34:04.761Z,65.23
2017-09-24T13:36:33.881Z,66.37
2017-09-24T13:39:02.833Z,65.67
2017-09-24T13:41:31.547Z,60.50
2017-09-24T13:44:00.346Z,60.07
2017-09-24T13:46:29.401Z,64.07
2017-09-24T13:48:58.503Z,62.50
2017-09-24T13:51:27.223Z,62.57
2017-09-24T13:53:56.355Z,68.13
2017-09-24T13:56:25.499Z,186.17
2017-09-24T13:58:54.545Z,69.87
2017-09-24T14:01:23.280Z,67.60
2017-09-24T14:03:52.635Z,61.73
2017-09-24T14:06:22.255Z,60.80
2017-09-24T14:08:51.147Z,54.13
2017-09-24T14:11:20.660Z,59.40
2017-09-24T14:13:49.834Z,51.53
2017-09-24T14:16:18.890Z,55.37
2017-09-24T14:18:48.570Z,53.93
2017-09-24T14:21:17.474Z,48.60
2017-09-24T14:23:46.424Z,85.57
2017-09-24T14:26:15.495Z,37.13
2017-09-24T14:28:45.041Z,48.23
2017-09-24T14:31:13.839Z,50.43
2017-09-24T14:33:42.534Z,54.70
2017-09-24T14:36:11.813Z,35.60
2017-09-24T14:38:40.838Z,46.93
2017-09-24T14:41:09.783Z,51.10
2017-09-24T14:43:38.466Z,41.87
2017-09-24T14:46:07.788Z,43.60
2017-09-24T14:48:37.346Z,47.80
2017-09-24T14:51:06.871Z,45.57
2017-09-24T14:53:37.280Z,44.30
2017-09-24T14:56:06.410Z,41.73
2017-09-24T14:58:36.231Z,38.37
2017-09-24T15:01:04.964Z,44.63
2017-09-24T15:03:33.989Z,40.97
2017-09-24T15:06:02.785Z,41.40
2017-09-24T15:08:32.493Z,44.07
2017-09-24T15:11:01.439Z,41.17
2017-09-24T15:13:30.430Z,42.30
2017-09-24T15:15:59.647Z,43.80
2017-09-24T15:18:28.714Z,44.90
2017-09-24T15:20:57.688Z,43.50
2017-09-24T15:23:26.621Z,44.73
2017-09-24T15:25:55.456Z,46.60
2017-09-24T15:28:25.008Z,43.00
2017-09-24T15:30:53.786Z,45.23
2017-09-24T15:33:22.429Z,42.70
2017-09-24T15:35:51.278Z,45.33
2017-09-24T15:38:20.404Z,49.00
2017-09-24T15:40:49.468Z,45.27
2017-09-24T15:43:18.468Z,44.23
2017-09-24T15:45:47.205Z,45.40
2017-09-24T15:48:16.260Z,46.10
2017-09-24T15:50:45.067Z,42.77
2017-09-24T15:53:14.883Z,37.37
2017-09-24T15:55:44.152Z,40.83
2017-09-24T15:58:12.804Z,40.43
2017-09-24T16:00:42.631Z,43.90
2017-09-24T16:03:11.643Z,42.93
2017-09-24T16:05:40.867Z,40.00
2017-09-24T16:08:09.857Z,38.50
2017-09-24T16:13:04.981Z,52.83
2017-09-24T16:15:34.122Z,42.17
2017-09-24T16:18:03.148Z,40.40
2017-09-24T16:20:31.829Z,40.53
2017-09-24T16:23:00.770Z,38.93
2017-09-24T16:25:29.700Z,40.87
2017-09-24T16:27:58.861Z,42.20
2017-09-24T16:30:27.930Z,43.33
2017-09-24T16:32:56.953Z,41.33
2017-09-24T16:35:26.002Z,42.23
2017-09-24T16:37:55.815Z,40.67
2017-09-24T16:40:24.973Z,43.80
2017-09-24T16:42:54.026Z,41.47
2017-09-24T16:45:23.341Z,44.67
2017-09-24T16:47:52.290Z,43.20
2017-09-24T16:50:22.541Z,42.10
2017-09-24T16:52:51.252Z,45.50
2017-09-24T16:55:19.668Z,36.83
2017-09-24T16:57:48.374Z,24.93
2017-09-24T17:00:17.282Z,33.50
2017-09-24T17:02:46.815Z,32.03
2017-09-24T17:05:16.137Z,30.27
2017-09-24T17:07:45.251Z,31.20
2017-09-24T17:10:14.239Z,29.17
2017-09-24T17:12:43.170Z,28.50
2017-09-24T17:15:12.273Z,42.83
2017-09-24T17:17:41.130Z,41.07
2017-09-24T17:20:10.087Z,35.00
2017-09-24T17:22:38.919Z,37.83
2017-09-24T17:25:07.739Z,36.20
2017-09-24T17:27:36.609Z,37.10
2017-09-24T17:30:05.510Z,41.33
2017-09-24T17:32:35.204Z,35.20
2017-09-24T17:35:03.924Z,38.20
2017-09-24T17:37:32.970Z,57.33
2017-09-24T17:40:02.014Z,40.83
2017-09-24T17:42:30.954Z,39.10
2017-09-24T17:45:00.152Z,41.50
2017-09-24T17:47:29.469Z,42.17
2017-09-24T17:49:58.447Z,48.03
2017-09-24T17:52:27.431Z,37.80
2017-09-24T17:54:56.239Z,44.53
2017-09-24T17:57:24.958Z,42.80
2017-09-24T17:59:54.411Z,45.90
2017-09-24T18:02:23.167Z,45.13
2017-09-24T18:04:51.988Z,46.93
2017-09-24T18:07:20.481Z,47.47
2017-09-24T18:09:49.503Z,44.40
2017-09-24T18:12:18.204Z,44.33
2017-09-24T18:14:46.918Z,43.30
2017-09-24T18:17:15.692Z,37.80
2017-09-24T18:19:44.835Z,42.73
2017-09-24T18:22:13.694Z,49.60
2017-09-24T18:24:42.890Z,44.40
2017-09-24T18:27:12.324Z,46.47
2017-09-24T18:29:41.004Z,38.73
2017-09-24T18:32:09.914Z,45.77
2017-09-24T18:34:38.890Z,44.63
2017-09-24T18:37:07.850Z,36.73
2017-09-24T18:39:36.501Z,38.57
2017-09-24T18:42:05.564Z,31.27
2017-09-24T18:44:35.268Z,43.33
2017-09-24T18:47:05.194Z,38.17
2017-09-24T18:49:34.179Z,35.17
2017-09-24T18:52:03.146Z,36.83
2017-09-24T18:54:32.397Z,35.70
2017-09-24T18:57:01.778Z,36.93
2017-09-24T18:59:30.481Z,36.43
2017-09-24T19:01:59.337Z,36.87
2017-09-24T19:04:28.750Z,31.03
2017-09-24T19:06:57.815Z,37.00
2017-09-24T19:09:26.765Z,32.90
2017-09-24T19:11:55.388Z,34.37
2017-09-24T19:14:24.685Z,37.20
2017-09-24T19:16:53.895Z,34.00
2017-09-24T19:19:22.681Z,33.23
2017-09-24T19:21:51.302Z,31.63
2017-09-24T19:24:20.265Z,32.70
2017-09-24T19:26:49.702Z,29.47
2017-09-24T19:29:18.242Z,36.00
2017-09-24T19:31:48.068Z,36.93
2017-09-24T19:34:17.082Z,30.43
2017-09-24T19:36:45.627Z,35.70
2017-09-24T19:39:14.242Z,32.37
2017-09-24T19:41:42.985Z,34.77
2017-09-24T19:44:11.927Z,32.83
2017-09-24T19:46:40.862Z,36.03
2017-09-24T19:49:09.370Z,37.30
2017-09-24T19:51:38.075Z,32.73
2017-09-24T19:54:06.764Z,30.30
2017-09-24T19:56:35.652Z,39.50
2017-09-24T19:59:05.424Z,40.73
2017-09-24T20:01:34.561Z,31.27
2017-09-24T20:04:03.566Z,31.57
2017-09-24T20:06:32.418Z,33.93
2017-09-24T20:09:01.314Z,39.07
2017-09-24T20:11:30.547Z,33.30
2017-09-24T20:13:59.365Z,35.37
2017-09-24T20:16:28.074Z,37.00
2017-09-24T20:18:57.104Z,37.60
2017-09-24T20:21:25.972Z,33.03
2017-09-24T20:23:54.935Z,38.80
2017-09-24T20:26:24.391Z,33.70
2017-09-24T20:28:53.186Z,33.83
2017-09-24T20:31:22.213Z,42.27
2017-09-24T20:33:50.997Z,39.87
2017-09-24T20:36:19.932Z,37.40
2017-09-24T20:38:48.598Z,35.73
2017-09-24T20:41:17.181Z,35.10
2017-09-24T20:43:46.015Z,35.13
2017-09-24T20:46:14.934Z,35.70
2017-09-24T20:48:43.730Z,36.03
2017-09-24T20:51:12.404Z,38.60
2017-09-24T20:53:41.833Z,33.23
2017-09-24T20:56:10.770Z,35.40
2017-09-24T20:58:39.366Z,42.30
2017-09-24T21:01:08.531Z,36.67
2017-09-24T21:03:37.790Z,41.83
2017-09-24T21:06:07.005Z,38.40
2017-09-24T21:08:36.036Z,41.53
2017-09-24T21:11:05.981Z,44.37
2017-09-24T21:13:35.088Z,38.70
2017-09-24T21:16:03.741Z,47.70
2017-09-24T21:18:32.370Z,34.50
2017-09-24T21:21:01.148Z,41.50
2017-09-24T21:23:29.775Z,37.20
2017-09-24T21:25:59.478Z,38.80
2017-09-24T21:28:28.732Z,40.63
2017-09-24T21:30:57.525Z,38.87
2017-09-24T21:33:27.244Z,40.07
2017-09-24T21:35:56.395Z,45.20
2017-09-24T21:38:25.253Z,38.57
2017-09-24T21:40:54.528Z,38.83
2017-09-24T21:43:23.541Z,38.33
2017-09-24T21:45:52.454Z,39.93
2017-09-24T21:48:21.180Z,37.13
2017-09-24T21:50:49.672Z,42.93
2017-09-24T21:53:18.711Z,38.93
2017-09-24T21:55:49.388Z,41.30
2017-09-24T21:58:18.723Z,43.70
2017-09-24T22:00:47.955Z,45.70
2017-09-24T22:03:16.856Z,45.03
2017-09-24T22:05:46.140Z,37.80
2017-09-24T22:08:14.889Z,43.47
2017-09-24T22:10:43.660Z,39.63
2017-09-24T22:13:13.511Z,41.90
2017-09-24T22:15:42.962Z,39.47
2017-09-24T22:18:11.635Z,41.83
2017-09-24T22:20:40.674Z,39.03
2017-09-24T22:23:09.773Z,95.70
2017-09-24T22:25:38.964Z,41.83
2017-09-24T22:28:07.453Z,42.00
2017-09-24T22:30:38.351Z,39.53
2017-09-24T22:33:07.621Z,43.10
2017-09-24T22:35:36.675Z,39.87
2017-09-24T22:38:05.506Z,42.00
2017-09-24T22:40:34.939Z,43.47
2017-09-24T22:43:03.821Z,44.70
2017-09-24T22:45:32.715Z,39.67
2017-09-24T22:48:02.190Z,40.63
2017-09-24T22:50:31.176Z,46.37
2017-09-24T22:52:59.991Z,41.47
2017-09-24T22:55:28.755Z,42.80
2017-09-24T22:57:57.566Z,44.33
2017-09-24T23:00:26.374Z,42.47
2017-09-24T23:02:55.327Z,42.97
2017-09-24T23:05:24.135Z,42.63
2017-09-24T23:07:52.697Z,43.13
2017-09-24T23:10:21.302Z,41.87
2017-09-24T23:12:50.621Z,39.30
2017-09-24T23:15:19.605Z,43.80
2017-09-24T23:17:50.022Z,35.90
2017-09-24T23:20:18.745Z,37.53
2017-09-24T23:22:47.410Z,40.40
2017-09-24T23:25:15.864Z,46.43
2017-09-24T23:27:44.677Z,43.50
2017-09-24T23:30:13.584Z,40.53
2017-09-24T23:32:42.649Z,41.53
2017-09-24T23:35:12.230Z,43.40
2017-09-24T23:37:41.462Z,40.40
2017-09-24T23:40:09.906Z,43.73
2017-09-24T23:42:39.111Z,40.70
2017-09-24T23:45:08.416Z,48.70
2017-09-24T23:47:37.916Z,45.63
2017-09-24T23:50:06.658Z,44.07
2017-09-24T23:52:35.390Z,39.93
2017-09-24T23:55:04.326Z,43.20
2017-09-24T23:57:33.081Z,42.73
